DeLand, FL

6:19 PM EDT on July 03, 2015 (GMT -0400)
Glenwood Hammock | | Change Station
CLOSE
Current Station
Personal Weather Station
Location: DeLand, FL
Elevation: 111 ft
Nearby Weather Stations

Elev 111 ft 29.06 °N, 81.36 °W | Updated 9 minutes ago

Partly Cloudy
Partly Cloudy
91.9 °F
Feels Like 104 °F
N
3.0
Wind Variable Wind from East
Gusts 6.0 mph

Today
High -- | Low -- °F
--% Chance of Precip.
Yesterday
High -- | Low -- °F
Precip. -- in
6:30 AM 8:28 PM
Waning Gibbous, 96% visible
Pressure 30.04 in
Visibility 10.0 miles
Clouds Few 8000 ft
Heat Index 104 °F
Dew Point 76 °F
Humidity 60%
Rainfall 0.00 in
Snow Depth Not available.
UV 4 out of 12
Pollen 2.50 out of 12
Air Quality Not available.
Flu Activity Not available.
METAR KSFB 032153Z 16010KT 10SM TS FEW080 32/22 A3004 RMK AO2 LTG DSNT S AND SW TSB52 SLP170 TS W STNRY T03220217

More Conditions Fewer Conditions

Pressure 30.04 in
Visibility 10.0 miles
Clouds Few 8000 ft
Heat Index 104 °F
Dew Point 76 °F
Humidity 60%
Rainfall 0.00 in
Snow Depth Not available.
UV 4 out of 12
Pollen 2.50 out of 12
Air Quality Not available.
Flu Activity Not available.
METAR KSFB 032153Z 16010KT 10SM TS FEW080 32/22 A3004 RMK AO2 LTG DSNT S AND SW TSB52 SLP170 TS W STNRY T03220217

More Conditions Fewer Conditions

Nowcast | as of 6:08 PM EDT on July 3, 2015

Through mid evening...sea breeze and numerous mesoscale outflow boundary collisions will aid to ignite additional showers and storms across the interior. Strongest storms will be capable of torrential rainfall...frequent lightning...small hail...and wind gusts to around 55 mph. Movement is slow with a general drift toward the west or southwest. Additional details...including graphics are available online at: http://www.Srh.NOAA.Gov/mlb/blog.Php

×

10-Day Weather Forecast

×

Almanac

Astronomy

Jul. 03, 2015 Rise Set
Actual Time
Civil Twilight
Nautical Twilight
Astronomical Twilight
Moon
Length of Visible Light
Length of Day
Tomorrow will be .
, % of the Moon is Illuminated

Today's Extremes

State Highs State Lows

Community

WunderPhotos

Upload Photos

1,834,790 photos uploaded!

WunderBlogs® & News

Nearby

Air Quality

  Air Quality AQ Index Pollutant
Not available.

Snow Depth

Station Depth Elevation

Earthquake Activity

City Distance Mag. Time & Date
Minimum magnitude displayed is 2.5.

Coastal Water Temperatures

Place Temperature

Stations

Nearby Weather Stations

Station Location Temp. Windchill Dew Point Humidity Wind Precip. Elev Updated Type